Time;durP1;ratioP1;P1;durP2;ratioP2;P2;SDS_P1;SDS_P2;PMS_P1;PMS_P2;Temp;Humidity;BMP_temperature;BMP_pressure;BME280_temperature;BME280_humidity;BME280_pressure;Samples;Min_cycle;Max_cycle;Signal;HPM_P1;HPM_P2
2021/04/27 00:02:25;;;;;;;8.27;3.13;;;8.30;46.80;;;;;;5012424;28;20435;-54
2021/04/27 00:04:50;;;;;;;7.30;2.90;;;8.30;46.80;;;;;;5011385;28;20381;-54
2021/04/27 00:07:16;;;;;;;8.68;3.10;;;8.20;47.00;;;;;;5012451;28;20412;-54
2021/04/27 00:09:42;;;;;;;6.10;2.90;;;8.10;47.30;;;;;;5012061;28;20590;-54
2021/04/27 00:12:09;;;;;;;7.70;3.03;;;8.10;47.20;;;;;;4994108;28;20450;-54
2021/04/27 00:14:35;;;;;;;7.38;2.92;;;8.10;47.30;;;;;;5012126;28;20384;-54
2021/04/27 00:17:01;;;;;;;7.38;3.10;;;8.20;47.90;;;;;;5011014;28;20380;-54
2021/04/27 00:19:27;;;;;;;6.18;2.80;;;8.00;48.30;;;;;;5012208;28;20380;-55
2021/04/27 00:21:53;;;;;;;6.43;2.50;;;8.00;48.20;;;;;;5011571;28;20975;-54
2021/04/27 00:24:19;;;;;;;6.65;3.13;;;8.00;48.50;;;;;;5012097;28;20484;-54
2021/04/27 00:26:44;;;;;;;8.50;3.13;;;7.90;48.70;;;;;;5012234;28;20477;-54
2021/04/27 00:29:10;;;;;;;7.70;2.90;;;8.00;49.00;;;;;;5011028;28;20550;-54
2021/04/27 00:31:36;;;;;;;6.75;2.80;;;7.80;48.70;;;;;;5011917;28;20424;-54
2021/04/27 00:34:02;;;;;;;7.78;3.08;;;7.80;49.10;;;;;;5011112;28;20377;-54
2021/04/27 00:36:28;;;;;;;8.43;3.30;;;7.70;49.00;;;;;;5011805;28;20388;-54
2021/04/27 00:38:54;;;;;;;11.17;3.20;;;7.70;49.40;;;;;;5010953;28;20393;-53
2021/04/27 00:41:20;;;;;;;8.00;3.00;;;7.70;49.40;;;;;;5011354;28;20401;-53
2021/04/27 00:43:46;;;;;;;8.43;3.03;;;7.70;49.90;;;;;;5011614;28;20448;-53
2021/04/27 00:46:12;;;;;;;8.87;3.03;;;7.60;49.90;;;;;;5010853;28;20840;-52
2021/04/27 00:48:38;;;;;;;7.25;2.92;;;7.50;49.80;;;;;;5011675;28;20415;-52
2021/04/27 00:51:04;;;;;;;7.07;2.90;;;7.60;50.40;;;;;;5010822;28;20476;-52
2021/04/27 00:53:30;;;;;;;7.80;3.30;;;7.50;50.30;;;;;;5011234;28;20781;-52
2021/04/27 00:55:56;;;;;;;8.52;3.20;;;7.50;50.40;;;;;;5010608;28;20484;-52
2021/04/27 00:58:26;;;;;;;9.40;3.40;;;7.50;50.50;;;;;;5011540;28;20389;-52
2021/04/27 01:00:52;;;;;;;8.88;3.30;;;7.40;50.60;;;;;;5010551;28;20423;-56
2021/04/27 01:03:18;;;;;;;6.93;3.05;;;7.40;50.70;;;;;;4993768;28;20872;-52
2021/04/27 01:05:44;;;;;;;8.07;3.90;;;7.40;50.80;;;;;;5011263;28;20373;-52
2021/04/27 01:08:47;;;;;;;8.57;3.30;;;7.30;51.10;;;;;;5010260;28;20413;-52
2021/04/27 01:11:28;;;;;;;7.00;3.05;;;7.30;51.10;;;;;;4992237;28;20421;-52
2021/04/27 01:14:18;;;;;;;10.07;3.40;;;7.20;51.40;;;;;;5010450;28;20475;-52
2021/04/27 01:16:49;;;;;;;6.40;3.10;;;7.20;51.70;;;;;;5010761;28;20385;-52
2021/04/27 01:19:17;;;;;;;8.50;3.30;;;7.20;51.70;;;;;;5010592;28;20400;-52
2021/04/27 01:21:44;;;;;;;7.13;2.97;;;7.30;51.90;;;;;;5011036;28;20552;-52
2021/04/27 01:24:28;;;;;;;9.07;3.47;;;7.20;51.90;;;;;;5009772;28;20392;-52
2021/04/27 01:26:57;;;;;;;7.00;3.10;;;7.10;52.00;;;;;;5010286;28;20515;-52
2021/04/27 01:29:28;;;;;;;8.00;2.95;;;7.10;52.10;;;;;;5009689;28;20439;-52
2021/04/27 01:31:58;;;;;;;8.63;3.30;;;7.20;52.40;;;;;;4993263;28;20393;-52
2021/04/27 01:34:31;;;;;;;7.28;3.20;;;7.10;52.60;;;;;;5010897;28;20836;-52
2021/04/27 01:36:57;;;;;;;9.10;3.00;;;6.90;52.90;;;;;;5009866;28;20385;-52
2021/04/27 01:39:27;;;;;;;6.57;2.95;;;6.80;53.20;;;;;;5010352;28;20927;-52
2021/04/27 01:41:54;;;;;;;9.13;3.20;;;6.90;53.60;;;;;;5009835;28;20911;-56
2021/04/27 01:44:20;;;;;;;7.72;3.00;;;6.90;53.50;;;;;;5010708;28;20377;-52
2021/04/27 01:46:47;;;;;;;8.32;3.40;;;6.90;53.80;;;;;;5010336;28;20948;-52
2021/04/27 01:49:14;;;;;;;9.63;4.43;;;6.90;54.00;;;;;;5009623;28;20417;-52
2021/04/27 01:51:40;;;;;;;7.53;3.20;;;6.90;54.00;;;;;;5010716;28;20475;-52
2021/04/27 01:54:07;;;;;;;7.63;2.80;;;6.80;54.00;;;;;;5009443;28;20447;-52
2021/04/27 01:56:33;;;;;;;7.65;3.00;;;6.80;54.30;;;;;;5009892;28;20479;-52
2021/04/27 01:58:59;;;;;;;9.23;2.80;;;6.80;54.40;;;;;;5009938;28;20414;-52
2021/04/27 02:01:25;;;;;;;9.20;2.90;;;6.80;54.30;;;;;;5010035;28;20464;-52
2021/04/27 02:03:51;;;;;;;7.97;3.10;;;6.80;54.50;;;;;;5009741;28;20377;-53
2021/04/27 02:06:17;;;;;;;7.57;2.95;;;6.90;54.70;;;;;;5010052;28;20460;-52
2021/04/27 02:08:48;;;;;;;7.80;3.10;;;6.80;54.70;;;;;;5010040;28;20417;-52
2021/04/27 02:11:14;;;;;;;7.32;3.40;;;6.80;54.90;;;;;;5009410;28;20474;-52
2021/04/27 02:13:40;;;;;;;7.65;3.45;;;6.80;54.90;;;;;;5009985;28;20389;-52
2021/04/27 02:16:07;;;;;;;7.03;3.10;;;6.80;55.10;;;;;;5009300;28;20396;-52
2021/04/27 02:18:35;;;;;;;8.40;3.20;;;6.80;55.30;;;;;;4992122;28;20431;-52
2021/04/27 02:21:03;;;;;;;6.65;2.80;;;6.80;55.30;;;;;;5009377;28;20389;-53
2021/04/27 02:23:30;;;;;;;5.90;3.20;;;6.90;55.40;;;;;;5010063;28;20389;-52
2021/04/27 02:25:58;;;;;;;7.30;3.53;;;6.80;55.50;;;;;;4991355;28;20396;-52
2021/04/27 02:28:24;;;;;;;7.10;3.23;;;6.70;55.60;;;;;;5009954;28;20404;-52
2021/04/27 02:30:51;;;;;;;8.02;3.00;;;6.60;55.90;;;;;;5009784;28;20377;-56
2021/04/27 02:33:19;;;;;;;6.15;3.05;;;6.60;57.00;;;;;;5009461;28;20380;-52
2021/04/27 02:35:47;;;;;;;8.20;3.00;;;6.50;57.20;;;;;;4992544;28;20731;-52
2021/04/27 02:38:13;;;;;;;7.03;3.47;;;6.60;57.10;;;;;;5009187;28;20500;-52
2021/04/27 02:40:39;;;;;;;6.88;3.30;;;6.60;57.60;;;;;;5010769;28;20491;-52
2021/04/27 02:43:05;;;;;;;9.23;4.60;;;6.50;58.00;;;;;;5013056;28;20385;-52
2021/04/27 02:45:31;;;;;;;8.50;3.72;;;6.50;58.30;;;;;;5013273;28;20792;-52
2021/04/27 02:48:08;;;;;;;7.07;3.00;;;6.40;59.50;;;;;;5012971;28;20424;-52
2021/04/27 02:50:34;;;;;;;6.97;3.10;;;6.40;59.80;;;;;;5013388;28;20975;-52
2021/04/27 02:53:00;;;;;;;6.43;2.83;;;6.30;60.80;;;;;;5012957;28;20405;-52
2021/04/27 02:55:26;;;;;;;5.97;2.60;;;6.20;60.80;;;;;;5013017;28;20424;-52
2021/04/27 02:57:51;;;;;;;6.55;3.00;;;6.20;61.80;;;;;;5012690;28;20380;-56
2021/04/27 03:00:17;;;;;;;9.23;3.22;;;6.30;62.00;;;;;;5013277;28;20380;-52
2021/04/27 03:02:43;;;;;;;8.55;3.20;;;6.20;62.10;;;;;;5013203;28;20384;-53
2021/04/27 03:05:09;;;;;;;6.73;3.10;;;6.20;62.00;;;;;;5012710;28;21342;-52
2021/04/27 03:07:35;;;;;;;5.93;2.78;;;6.00;62.80;;;;;;5013226;28;20765;-52
2021/04/27 03:10:00;;;;;;;7.32;2.88;;;6.00;63.70;;;;;;5012171;28;20437;-53
2021/04/27 03:12:27;;;;;;;6.27;3.23;;;6.00;64.90;;;;;;5013243;28;20424;-52
2021/04/27 03:14:53;;;;;;;9.40;3.00;;;5.90;65.50;;;;;;5012481;28;20556;-56
2021/04/27 03:17:19;;;;;;;7.30;3.10;;;5.90;65.80;;;;;;5012921;28;20464;-52
2021/04/27 03:19:44;;;;;;;6.53;2.90;;;5.80;66.50;;;;;;5012944;28;20385;-53
2021/04/27 03:22:10;;;;;;;7.75;3.00;;;5.80;67.40;;;;;;5012473;28;20460;-53
2021/04/27 03:24:36;;;;;;;6.27;2.80;;;5.80;67.80;;;;;;5012961;28;20488;-52
2021/04/27 03:27:01;;;;;;;8.45;3.15;;;5.90;68.70;;;;;;5012448;28;20435;-53
2021/04/27 03:29:27;;;;;;;6.43;3.10;;;5.80;70.70;;;;;;5012823;28;20400;-53
2021/04/27 03:31:53;;;;;;;6.43;3.17;;;5.80;73.80;;;;;;5012608;28;20487;-56
2021/04/27 03:34:18;;;;;;;9.37;3.20;;;5.70;74.90;;;;;;5013089;28;20460;-53
2021/04/27 03:36:44;;;;;;;8.40;3.10;;;5.40;76.00;;;;;;5013007;28;20423;-52
2021/04/27 03:39:10;;;;;;;8.75;2.90;;;5.10;76.80;;;;;;5012084;28;20827;-52
2021/04/27 03:41:36;;;;;;;7.57;3.33;;;5.00;80.30;;;;;;5012860;28;20397;-55
2021/04/27 03:44:02;;;;;;;8.30;2.90;;;5.10;81.80;;;;;;5012004;28;20384;-54
2021/04/27 03:46:27;;;;;;;7.18;3.20;;;4.80;83.70;;;;;;5012656;28;20377;-53
2021/04/27 03:48:53;;;;;;;6.90;3.30;;;4.90;85.70;;;;;;5012396;28;20499;-57
2021/04/27 03:51:19;;;;;;;7.57;3.00;;;1.90;83.80;;;;;;5012301;28;20514;-53
2021/04/27 03:53:45;;;;;;;7.60;3.33;;;4.90;87.60;;;;;;5011705;28;20400;-53
2021/04/27 03:56:10;;;;;;;8.88;3.40;;;5.00;87.60;;;;;;5011866;28;21196;-53
2021/04/27 03:58:36;;;;;;;8.45;2.95;;;5.10;86.50;;;;;;5012489;28;20875;-53
2021/04/27 04:01:02;;;;;;;9.33;3.30;;;5.10;87.00;;;;;;5011748;28;20689;-53
2021/04/27 04:03:29;;;;;;;8.07;3.42;;;5.20;87.00;;;;;;5012597;28;20381;-53
2021/04/27 04:05:57;;;;;;;7.28;3.40;;;5.20;85.90;;;;;;5010986;28;20733;-57
2021/04/27 04:08:22;;;;;;;9.20;3.20;;;5.30;85.90;;;;;;5012188;28;20408;-53
2021/04/27 04:10:48;;;;;;;7.50;3.25;;;6.20;85.90;;;;;;5011716;28;20424;-53
2021/04/27 04:13:14;;;;;;;6.65;3.20;;;5.40;85.20;;;;;;4993873;28;20437;-53
2021/04/27 04:15:39;;;;;;;5.70;2.90;;;5.40;86.10;;;;;;5012179;28;20879;-53
2021/04/27 04:18:05;;;;;;;7.93;3.50;;;5.40;85.90;;;;;;5011402;28;20395;-53
2021/04/27 04:20:31;;;;;;;7.23;2.80;;;5.40;86.10;;;;;;5011605;28;20396;-52
2021/04/27 04:22:57;;;;;;;9.07;3.30;;;5.40;86.30;;;;;;5011383;28;20373;-53
2021/04/27 04:25:23;;;;;;;8.13;3.80;;;5.30;86.80;;;;;;5011718;28;20471;-53
2021/04/27 04:27:48;;;;;;;8.65;4.10;;;5.20;87.60;;;;;;5011820;28;20387;-52
2021/04/27 04:30:21;;;;;;;13.07;5.60;;;5.20;88.40;;;;;;5011174;28;21025;-53
2021/04/27 04:32:47;;;;;;;8.80;4.30;;;5.20;88.80;;;;;;5011790;28;20412;-53
2021/04/27 04:35:14;;;;;;;7.93;3.90;;;5.80;89.70;;;;;;4993225;28;20428;-53
2021/04/27 04:37:40;;;;;;;9.40;4.35;;;5.30;89.00;;;;;;5011583;28;20396;-53
2021/04/27 04:40:08;;;;;;;7.00;3.30;;;5.30;89.20;;;;;;5010664;28;20820;-53
2021/04/27 04:42:34;;;;;;;9.67;3.60;;;5.40;89.50;;;;;;5011427;28;20935;-52
2021/04/27 04:44:59;;;;;;;7.90;3.20;;;5.40;89.20;;;;;;5010894;28;20468;-53
2021/04/27 04:47:25;;;;;;;8.15;3.80;;;5.50;89.60;;;;;;5011260;28;20415;-53
2021/04/27 04:49:51;;;;;;;6.40;3.20;;;5.60;89.70;;;;;;5011686;28;20412;-53
2021/04/27 04:52:17;;;;;;;9.07;3.50;;;5.70;89.30;;;;;;5011248;28;20879;-53
2021/04/27 04:54:42;;;;;;;8.30;3.78;;;5.80;90.30;;;;;;5010969;28;20451;-53
2021/04/27 04:57:08;;;;;;;7.40;3.10;;;5.90;90.70;;;;;;5010348;28;20380;-53
2021/04/27 04:59:34;;;;;;;7.72;3.55;;;6.00;90.50;;;;;;5011091;28;20836;-51
2021/04/27 05:02:00;;;;;;;7.90;3.40;;;6.00;91.10;;;;;;4992910;28;20752;-52
2021/04/27 05:04:25;;;;;;;10.70;3.70;;;6.00;90.50;;;;;;5010959;28;20381;-53
2021/04/27 05:06:52;;;;;;;10.90;3.80;;;6.00;89.70;;;;;;4993589;28;20393;-53
2021/04/27 05:09:18;;;;;;;16.48;3.90;;;6.00;89.70;;;;;;5009766;28;20404;-53
2021/04/27 05:11:44;;;;;;;11.73;4.00;;;6.10;90.00;;;;;;5011031;28;20856;-53
2021/04/27 05:14:09;;;;;;;16.10;4.10;;;6.20;89.70;;;;;;5010046;28;20381;-53
2021/04/27 05:16:35;;;;;;;7.20;3.72;;;6.30;89.40;;;;;;5010857;28;20381;-51
2021/04/27 05:19:03;;;;;;;8.40;3.50;;;6.40;88.80;;;;;;5009445;28;20405;-51
2021/04/27 05:21:29;;;;;;;10.57;3.50;;;6.50;88.10;;;;;;5010294;28;20376;-54
2021/04/27 05:23:55;;;;;;;8.50;3.88;;;6.60;88.40;;;;;;4976555;28;20971;-57
2021/04/27 05:26:21;;;;;;;10.47;3.27;;;6.90;87.10;;;;;;5010229;28;20464;-54
2021/04/27 05:28:47;;;;;;;10.20;3.67;;;7.40;83.70;;;;;;5010595;28;20867;-53
2021/04/27 05:31:12;;;;;;;9.13;3.97;;;7.80;80.80;;;;;;4988701;28;20801;-53
2021/04/27 05:33:38;;;;;;;10.02;4.00;;;8.10;79.30;;;;;;4991071;28;20390;-54
2021/04/27 05:36:05;;;;;;;9.97;3.80;;;8.70;75.70;;;;;;4990079;28;20436;-55
2021/04/27 05:38:31;;;;;;;8.25;3.67;;;9.50;71.20;;;;;;4991087;28;20386;-55
2021/04/27 05:40:56;;;;;;;9.07;4.33;;;10.00;67.70;;;;;;4990335;28;20445;-58
2021/04/27 05:43:22;;;;;;;7.63;4.00;;;10.50;63.40;;;;;;4990690;28;20426;-52
2021/04/27 05:45:47;;;;;;;9.57;4.68;;;11.00;60.80;;;;;;4990874;28;20441;-53
2021/04/27 05:48:13;;;;;;;8.40;4.10;;;11.70;58.10;;;;;;4989939;28;21261;-52
2021/04/27 05:50:40;;;;;;;13.40;4.50;;;12.00;55.60;;;;;;4990670;28;20447;-52
2021/04/27 05:53:05;;;;;;;9.43;4.30;;;12.70;55.30;;;;;;4992779;28;20924;-54
2021/04/27 05:55:31;;;;;;;9.23;4.60;;;12.30;54.40;;;;;;4991995;28;20393;-53
2021/04/27 05:57:57;;;;;;;8.88;3.88;;;12.40;53.30;;;;;;5008762;28;20483;-58
2021/04/27 06:00:23;;;;;;;10.25;4.00;;;12.30;52.60;;;;;;5009137;28;20923;-52
2021/04/27 06:02:50;;;;;;;7.95;4.10;;;12.00;53.10;;;;;;5009673;28;20443;-52
2021/04/27 06:05:15;;;;;;;11.07;3.97;;;11.60;53.30;;;;;;5008431;28;20907;-52
2021/04/27 06:07:41;;;;;;;8.32;3.95;;;11.60;53.50;;;;;;5009505;28;20376;-52
2021/04/27 06:10:08;;;;;;;7.17;3.97;;;11.60;54.00;;;;;;5007978;28;20440;-52
2021/04/27 06:12:34;;;;;;;10.02;4.20;;;11.90;54.40;;;;;;5008991;28;20395;-52
2021/04/27 06:15:00;;;;;;;10.07;4.60;;;11.50;54.00;;;;;;4991009;28;20397;-52
2021/04/27 06:17:26;;;;;;;7.63;3.80;;;11.50;54.40;;;;;;5009443;28;20859;-53
2021/04/27 06:19:51;;;;;;;8.70;4.00;;;12.00;54.40;;;;;;5009386;28;20403;-52
2021/04/27 06:22:17;;;;;;;9.80;4.30;;;12.40;53.40;;;;;;5008601;28;20408;-52
2021/04/27 06:24:43;;;;;;;12.43;4.78;;;13.30;51.90;;;;;;5009330;28;20420;-52
2021/04/27 06:27:09;;;;;;;8.53;5.00;;;13.30;51.50;;;;;;5008088;28;20476;-55
2021/04/27 06:29:34;;;;;;;9.13;4.60;;;14.30;49.60;;;;;;5009314;28;20402;-55
2021/04/27 06:32:00;;;;;;;9.50;4.72;;;14.80;48.60;;;;;;5008301;28;20503;-53
2021/04/27 06:34:26;;;;;;;10.65;4.50;;;14.50;48.00;;;;;;5009318;28;20376;-59
2021/04/27 06:36:51;;;;;;;10.37;4.00;;;14.50;48.00;;;;;;5009843;28;20431;-53
2021/04/27 06:39:17;;;;;;;7.80;4.10;;;14.10;48.30;;;;;;5008006;28;20986;-55
2021/04/27 06:41:43;;;;;;;9.43;4.60;;;14.40;48.50;;;;;;5009660;28;20393;-54
2021/04/27 06:44:09;;;;;;;7.90;4.30;;;15.70;46.90;;;;;;5007858;28;20384;-55
2021/04/27 06:46:35;;;;;;;10.55;4.60;;;15.70;45.10;;;;;;5009690;28;20396;-54
2021/04/27 06:49:00;;;;;;;10.40;4.43;;;15.80;45.80;;;;;;5008418;28;20764;-54
2021/04/27 06:51:26;;;;;;;10.20;4.40;;;16.10;44.30;;;;;;5009274;28;20816;-54
2021/04/27 06:53:52;;;;;;;8.37;4.63;;;16.20;44.20;;;;;;5009192;28;20446;-53
2021/04/27 06:56:18;;;;;;;10.90;4.80;;;15.90;44.20;;;;;;5008650;28;20384;-54
2021/04/27 06:58:44;;;;;;;10.45;4.82;;;16.10;44.20;;;;;;5009659;28;20732;-53
2021/04/27 07:01:10;;;;;;;10.85;5.05;;;16.30;43.90;;;;;;5008320;28;20373;-54
2021/04/27 07:03:36;;;;;;;10.10;4.93;;;16.50;43.50;;;;;;5009418;28;20381;-54
2021/04/27 07:06:02;;;;;;;9.45;4.85;;;16.40;42.80;;;;;;5008228;28;20829;-54
2021/04/27 07:08:28;;;;;;;9.68;4.80;;;16.90;42.30;;;;;;4991718;28;20748;-54
2021/04/27 07:10:56;;;;;;;8.43;4.80;;;17.50;41.70;;;;;;5008278;28;20417;-52
2021/04/27 07:13:22;;;;;;;9.18;4.63;;;17.80;41.20;;;;;;5008634;28;20373;-52
2021/04/27 07:15:48;;;;;;;8.67;4.60;;;17.80;40.80;;;;;;5008993;28;20382;-52
2021/04/27 07:18:14;;;;;;;8.57;5.28;;;17.80;41.10;;;;;;5008096;28;20778;-54
2021/04/27 07:20:41;;;;;;;8.65;4.60;;;18.40;40.50;;;;;;5009351;28;20444;-53
2021/04/27 07:23:06;;;;;;;9.02;4.90;;;18.80;40.10;;;;;;5008085;28;20420;-52
2021/04/27 07:25:33;;;;;;;8.87;4.80;;;19.50;39.00;;;;;;5009356;28;20455;-53
2021/04/27 07:27:58;;;;;;;12.23;5.30;;;20.00;37.70;;;;;;5010144;28;20385;-59
2021/04/27 07:30:24;;;;;;;11.32;5.47;;;20.50;37.00;;;;;;5012508;28;20373;-52
2021/04/27 07:32:51;;;;;;;10.35;5.43;;;20.40;36.70;;;;;;5012903;28;20373;-53
2021/04/27 07:35:18;;;;;;;9.07;5.28;;;20.80;36.00;;;;;;5011824;28;20389;-53
2021/04/27 07:37:43;;;;;;;9.52;5.20;;;21.00;36.00;;;;;;5012230;28;20376;-53
2021/04/27 07:40:11;;;;;;;10.93;5.60;;;22.00;35.40;;;;;;5011273;28;20852;-54
2021/04/27 07:42:37;;;;;;;9.25;5.00;;;22.10;34.60;;;;;;4994878;28;20874;-53
2021/04/27 07:45:05;;;;;;;10.50;5.77;;;21.90;34.40;;;;;;5011359;28;20484;-53
2021/04/27 07:47:30;;;;;;;9.73;5.30;;;21.40;34.40;;;;;;5013024;28;20875;-52
2021/04/27 07:49:56;;;;;;;14.10;5.43;;;21.40;35.00;;;;;;5012030;28;20409;-59
2021/04/27 07:52:23;;;;;;;10.10;5.60;;;21.70;35.10;;;;;;5011736;28;20417;-52
2021/04/27 07:54:49;;;;;;;10.10;5.45;;;21.80;33.70;;;;;;5012357;28;20392;-52
2021/04/27 07:57:14;;;;;;;9.00;5.20;;;21.70;33.70;;;;;;5011422;28;20385;-52
2021/04/27 07:59:40;;;;;;;10.52;5.63;;;20.90;34.40;;;;;;5011901;28;20447;-53
2021/04/27 08:02:06;;;;;;;12.10;6.00;;;20.70;34.80;;;;;;4993609;28;20953;-53
2021/04/27 08:04:31;;;;;;;11.23;5.50;;;21.20;34.20;;;;;;5012085;28;20468;-53
2021/04/27 08:06:57;;;;;;;9.93;5.43;;;22.40;33.80;;;;;;5011408;28;20407;-61
2021/04/27 08:09:23;;;;;;;10.77;5.90;;;22.30;33.30;;;;;;5011407;28;20908;-55
2021/04/27 08:11:49;;;;;;;11.23;5.70;;;22.10;33.60;;;;;;5011630;28;20381;-53
2021/04/27 08:14:15;;;;;;;9.30;5.70;;;22.40;33.10;;;;;;5011031;28;20381;-53
2021/04/27 08:16:41;;;;;;;11.35;6.20;;;22.20;34.10;;;;;;5011824;28;20413;-53
2021/04/27 08:19:08;;;;;;;10.10;5.60;;;21.80;33.70;;;;;;5011079;28;20428;-53
2021/04/27 08:21:34;;;;;;;9.57;5.60;;;21.20;33.70;;;;;;5011764;28;20385;-54
2021/04/27 08:23:59;;;;;;;10.85;6.00;;;21.80;34.10;;;;;;5011209;28;20410;-60
2021/04/27 08:26:26;;;;;;;9.70;5.30;;;22.20;33.50;;;;;;5010836;28;20469;-54
2021/04/27 08:28:52;;;;;;;11.53;6.10;;;22.90;33.50;;;;;;5012032;28;20461;-53
2021/04/27 08:31:18;;;;;;;10.68;6.82;;;23.30;32.70;;;;;;5010900;28;20377;-54
2021/04/27 08:33:44;;;;;;;9.93;6.40;;;23.00;32.50;;;;;;5011060;28;20399;-53
2021/04/27 08:36:10;;;;;;;10.30;5.87;;;22.80;32.50;;;;;;5010963;28;20392;-54
2021/04/27 08:38:35;;;;;;;13.38;6.28;;;22.70;32.40;;;;;;5011696;28;20381;-53
2021/04/27 08:41:02;;;;;;;13.23;5.93;;;21.60;33.00;;;;;;5010232;28;20880;-55
2021/04/27 08:43:28;;;;;;;11.27;5.90;;;21.70;33.70;;;;;;5011009;28;20443;-54
2021/04/27 08:45:54;;;;;;;10.70;6.03;;;21.80;33.90;;;;;;5011423;28;20381;-54
2021/04/27 08:48:22;;;;;;;10.82;6.35;;;22.00;34.00;;;;;;5010546;28;20413;-54
2021/04/27 08:50:48;;;;;;;10.25;6.32;;;21.80;33.20;;;;;;5011349;28;20428;-54
2021/04/27 08:53:13;;;;;;;9.52;5.90;;;21.40;33.90;;;;;;5010398;28;20472;-54
2021/04/27 08:55:39;;;;;;;11.53;6.60;;;22.30;32.90;;;;;;5010727;28;20721;-54
2021/04/27 08:58:07;;;;;;;11.90;6.00;;;22.80;33.40;;;;;;4992707;28;20748;-54
2021/04/27 09:00:33;;;;;;;11.65;6.70;;;22.80;33.10;;;;;;5011193;28;20392;-54
2021/04/27 09:03:01;;;;;;;9.90;6.07;;;23.40;32.80;;;;;;5010313;28;20421;-62
2021/04/27 09:05:36;;;;;;;14.50;6.32;;;23.30;32.80;;;;;;5010714;28;20460;-54
2021/04/27 09:08:03;;;;;;;12.87;6.50;;;24.50;31.70;;;;;;5009856;28;20391;-59
2021/04/27 09:10:38;;;;;;;10.85;6.97;;;25.70;31.20;;;;;;5010131;28;20409;-54
2021/04/27 09:13:16;;;;;;;9.50;6.30;;;26.00;30.20;;;;;;5009838;28;20390;-55
2021/04/27 09:15:51;;;;;;;10.32;6.90;;;24.30;31.00;;;;;;5010756;28;20444;-54
2021/04/27 09:18:31;;;;;;;10.18;7.00;;;23.40;31.60;;;;;;5010361;28;20396;-53
2021/04/27 09:21:08;;;;;;;11.80;6.00;;;22.90;32.00;;;;;;5010333;28;20662;-55
2021/04/27 09:23:36;;;;;;;10.65;6.30;;;23.10;32.60;;;;;;5010912;28;20468;-54
2021/04/27 09:26:20;;;;;;;10.20;6.60;;;22.70;32.50;;;;;;5009858;28;20879;-61
2021/04/27 09:28:51;;;;;;;11.75;6.70;;;22.90;32.90;;;;;;5010505;28;20478;-53
2021/04/27 09:31:30;;;;;;;12.07;6.50;;;23.10;32.60;;;;;;5009549;28;20435;-54
2021/04/27 09:34:31;;;;;;;14.63;7.10;;;24.10;31.70;;;;;;5010735;28;20388;-54
2021/04/27 09:37:01;;;;;;;12.40;6.70;;;24.50;31.40;;;;;;4992477;28;20442;-54
2021/04/27 09:39:47;;;;;;;10.85;6.93;;;25.20;30.80;;;;;;5010086;28;20746;-54
2021/04/27 09:42:14;;;;;;;10.63;6.93;;;24.50;31.30;;;;;;5008944;28;20438;-54
2021/04/27 09:44:46;;;;;;;11.82;6.88;;;24.20;31.20;;;;;;5010086;28;20899;-54
2021/04/27 09:47:29;;;;;;;12.02;7.15;;;24.30;30.90;;;;;;4991852;28;20393;-54
2021/04/27 09:50:13;;;;;;;14.97;7.50;;;23.80;30.90;;;;;;5009481;28;20448;-54
2021/04/27 09:52:45;;;;;;;13.25;6.60;;;23.10;32.10;;;;;;5010491;28;20373;-54
2021/04/27 09:55:11;;;;;;;11.90;7.30;;;22.90;32.80;;;;;;5009311;28;20440;-54
2021/04/27 09:57:51;;;;;;;11.55;7.32;;;23.30;33.00;;;;;;5010090;28;20388;-54
2021/04/27 10:00:20;;;;;;;11.38;7.20;;;23.60;32.20;;;;;;5009321;28;20968;-54
2021/04/27 10:02:46;;;;;;;11.05;7.57;;;24.10;31.30;;;;;;5009681;28;20455;-54
2021/04/27 10:05:12;;;;;;;11.90;7.28;;;25.10;30.20;;;;;;5008985;28;20460;-53
2021/04/27 10:07:40;;;;;;;10.93;7.15;;;25.40;30.20;;;;;;5009648;28;20376;-53
2021/04/27 10:10:08;;;;;;;14.23;7.35;;;24.60;31.00;;;;;;5008981;28;20425;-54
2021/04/27 10:12:35;;;;;;;11.73;6.30;;;23.80;31.60;;;;;;5009978;28;20384;-54
2021/04/27 10:15:01;;;;;;;11.00;7.60;;;23.30;31.40;;;;;;5008963;28;20415;-61
2021/04/27 10:17:27;;;;;;;15.40;7.13;;;23.20;31.50;;;;;;5009673;28;20385;-54
2021/04/27 10:19:54;;;;;;;13.32;7.20;;;22.50;31.90;;;;;;5009963;28;20425;-54
2021/04/27 10:22:21;;;;;;;11.98;7.50;;;22.50;31.90;;;;;;5008283;28;20567;-56
2021/04/27 10:24:47;;;;;;;12.80;7.53;;;23.40;32.10;;;;;;5009104;28;20740;-54
2021/04/27 10:27:14;;;;;;;16.70;7.70;;;23.70;30.80;;;;;;5008424;28;20387;-55
2021/04/27 10:29:39;;;;;;;12.40;7.50;;;24.40;30.50;;;;;;5009127;28;20423;-54
2021/04/27 10:32:20;;;;;;;12.53;7.50;;;25.10;30.30;;;;;;5008994;28;20377;-55
2021/04/27 10:34:58;;;;;;;12.73;7.90;;;24.50;30.40;;;;;;5009588;28;20388;-54
2021/04/27 10:38:06;;;;;;;16.42;8.23;;;23.00;30.80;;;;;;5008833;28;20400;-53
2021/04/27 10:41:12;;;;;;;11.20;7.13;;;22.00;32.30;;;;;;5009407;28;20931;-54
2021/04/27 10:43:40;;;;;;;11.73;7.28;;;21.20;33.20;;;;;;5009278;28;20380;-54
2021/04/27 10:46:21;;;;;;;12.85;7.53;;;20.10;34.00;;;;;;5008685;28;20430;-54
2021/04/27 10:48:47;;;;;;;14.23;8.02;;;19.70;34.90;;;;;;4991779;28;20420;-53
2021/04/27 10:51:22;;;;;;;13.52;7.60;;;19.70;35.10;;;;;;5008076;28;20393;-52
2021/04/27 10:54:05;;;;;;;14.60;7.60;;;20.10;35.50;;;;;;5009656;28;20643;-53
2021/04/27 10:56:39;;;;;;;12.30;6.85;;;20.40;36.00;;;;;;5009027;28;20392;-53
2021/04/27 10:59:13;;;;;;;11.63;7.22;;;20.40;35.40;;;;;;5008464;28;20475;-60
2021/04/27 11:01:41;;;;;;;14.50;7.40;;;20.30;35.30;;;;;;5009629;28;20420;-51
2021/04/27 11:04:27;;;;;;;11.88;7.05;;;19.80;35.20;;;;;;5012156;28;20871;-51
2021/04/27 11:07:33;;;;;;;15.03;7.77;;;19.80;35.50;;;;;;5013243;28;20597;-52
2021/04/27 11:09:59;;;;;;;11.40;7.03;;;19.60;35.90;;;;;;4932812;29;20462;-51
2021/04/27 11:12:36;;;;;;;14.88;7.55;;;19.40;35.60;;;;;;4931910;29;20478;-54
2021/04/27 11:15:04;;;;;;;12.75;7.18;;;19.60;35.50;;;;;;4976052;28;20424;-55
2021/04/27 11:17:32;;;;;;;13.85;8.07;;;19.40;35.30;;;;;;5012605;28;20389;-52
2021/04/27 11:19:59;;;;;;;12.23;7.60;;;19.20;35.50;;;;;;5013119;28;20392;-54
2021/04/27 11:22:32;;;;;;;14.07;7.28;;;19.00;36.40;;;;;;5012115;28;20404;-53
2021/04/27 11:25:03;;;;;;;13.07;7.47;;;19.20;36.90;;;;;;5012353;28;20369;-52
2021/04/27 11:27:41;;;;;;;15.17;7.70;;;19.30;37.10;;;;;;5012331;28;20373;-53
2021/04/27 11:30:13;;;;;;;11.50;7.43;;;19.40;36.50;;;;;;4994226;28;20841;-53
2021/04/27 11:32:44;;;;;;;12.35;7.90;;;19.30;37.10;;;;;;5012510;28;20474;-52
2021/04/27 11:35:17;;;;;;;16.35;8.77;;;19.80;36.00;;;;;;5012006;28;20381;-53
2021/04/27 11:37:52;;;;;;;13.65;6.72;;;20.00;35.50;;;;;;5012882;28;20404;-53
2021/04/27 11:40:31;;;;;;;13.63;7.10;;;20.00;36.60;;;;;;5011317;28;20396;-52
2021/04/27 11:43:11;;;;;;;13.68;7.60;;;20.30;35.80;;;;;;5012191;28;20395;-52
2021/04/27 11:45:38;;;;;;;11.75;7.68;;;20.30;33.70;;;;;;5012019;28;20385;-52
2021/04/27 11:48:05;;;;;;;11.70;7.30;;;19.90;34.00;;;;;;5011994;28;20396;-59
2021/04/27 11:50:32;;;;;;;14.30;7.68;;;19.70;34.20;;;;;;4994763;28;20464;-52
2021/04/27 11:53:03;;;;;;;13.48;6.95;;;19.20;33.60;;;;;;5012477;28;20880;-52
2021/04/27 11:55:52;;;;;;;12.38;7.15;;;19.20;33.80;;;;;;5011991;28;20389;-53
2021/04/27 11:58:22;;;;;;;12.65;6.90;;;19.50;34.10;;;;;;5011090;28;20404;-52
2021/04/27 12:01:00;;;;;;;14.23;8.05;;;19.50;34.30;;;;;;5012302;28;20459;-52
2021/04/27 12:03:40;;;;;;;11.95;7.50;;;19.80;35.50;;;;;;5011127;28;20477;-52
2021/04/27 12:06:06;;;;;;;11.10;7.40;;;20.10;35.40;;;;;;4993779;28;20752;-60
2021/04/27 12:08:45;;;;;;;11.37;7.30;;;20.00;35.00;;;;;;5011368;28;20404;-52
2021/04/27 12:11:21;;;;;;;13.43;7.70;;;20.30;34.80;;;;;;5010754;28;20892;-53
2021/04/27 12:13:53;;;;;;;12.93;7.55;;;19.80;34.10;;;;;;5010875;28;20532;-52
2021/04/27 12:16:21;;;;;;;12.88;7.50;;;19.90;34.80;;;;;;5011011;28;20472;-52
2021/04/27 12:19:02;;;;;;;15.73;7.63;;;20.20;34.50;;;;;;5011744;28;20864;-52
2021/04/27 12:21:41;;;;;;;16.73;7.30;;;20.30;33.60;;;;;;5011040;28;20844;-54
2021/04/27 12:24:14;;;;;;;14.52;8.00;;;20.20;33.30;;;;;;5010586;28;20463;-53
2021/04/27 12:26:49;;;;;;;11.98;7.45;;;19.80;33.80;;;;;;5011521;28;20417;-53
2021/04/27 12:29:15;;;;;;;15.98;7.80;;;19.60;34.00;;;;;;5010304;28;20428;-53
2021/04/27 12:31:42;;;;;;;13.77;8.43;;;19.10;34.50;;;;;;5011557;28;20829;-56
2021/04/27 12:34:14;;;;;;;13.05;7.20;;;19.00;34.90;;;;;;5010838;28;20392;-53
2021/04/27 12:36:42;;;;;;;13.00;7.10;;;19.50;33.00;;;;;;5011080;28;20413;-54
2021/04/27 12:39:20;;;;;;;13.65;7.28;;;19.70;34.40;;;;;;5010257;28;20396;-54
2021/04/27 12:41:46;;;;;;;13.88;7.40;;;19.80;34.70;;;;;;5011104;28;20479;-53
2021/04/27 12:44:30;;;;;;;11.33;6.83;;;20.10;34.60;;;;;;5010337;28;20492;-53
2021/04/27 12:47:00;;;;;;;13.02;7.22;;;20.10;32.00;;;;;;4993681;28;20407;-53
2021/04/27 12:49:32;;;;;;;12.77;7.82;;;20.30;33.10;;;;;;5010531;28;20411;-53
2021/04/27 12:52:14;;;;;;;13.10;8.18;;;19.90;32.50;;;;;;5011209;28;20855;-53
2021/04/27 12:54:41;;;;;;;12.63;7.22;;;19.40;32.60;;;;;;4978098;28;20393;-54